Time;durP1;ratioP1;P1;durP2;ratioP2;P2;SDS_P1;SDS_P2;PMS_P1;PMS_P2;Temp;Humidity;BMP_temperature;BMP_pressure;BME280_temperature;BME280_humidity;BME280_pressure;Samples;Min_cycle;Max_cycle;Signal;HPM_P1;HPM_P2
2022/01/19 00:00:19;;;;;;;47.25;31.63;;;;;;;-4.29;99.02;97167.84;5011502;28;20042;-59
2022/01/19 00:02:44;;;;;;;48.97;33.13;;;;;;;-4.25;99.77;97161.81;5012599;28;20466;-59
2022/01/19 00:05:11;;;;;;;43.42;31.38;;;;;;;-4.26;100.00;97160.09;5012196;28;20025;-59
2022/01/19 00:07:37;;;;;;;42.78;30.55;;;;;;;-4.29;99.92;97152.44;5011917;28;20441;-59
2022/01/19 00:10:05;;;;;;;43.90;30.80;;;;;;;-4.33;99.33;97141.31;5012046;28;20088;-59
2022/01/19 00:12:31;;;;;;;40.40;29.42;;;;;;;-4.33;100.00;97143.88;5012075;28;20494;-59
2022/01/19 00:14:57;;;;;;;41.47;28.85;;;;;;;-4.31;99.35;97144.72;5012019;28;20029;-60
2022/01/19 00:17:23;;;;;;;38.22;28.83;;;;;;;-4.33;99.15;97152.44;5010552;28;20041;-60
2022/01/19 00:19:48;;;;;;;38.10;28.45;;;;;;;-4.35;99.54;97159.31;5012186;28;20397;-60
2022/01/19 00:22:14;;;;;;;36.95;27.50;;;;;;;-4.35;100.00;97166.19;5011917;28;20121;-59
2022/01/19 00:24:41;;;;;;;41.10;27.98;;;;;;;-4.38;99.81;97150.78;5011947;28;20026;-59
2022/01/19 00:27:06;;;;;;;37.92;26.38;;;;;;;-4.41;100.00;97156.81;5011717;28;20044;-59
2022/01/19 00:29:32;;;;;;;32.13;25.25;;;;;;;-4.40;100.00;97176.50;5012136;28;20022;-60
2022/01/19 00:31:57;;;;;;;36.13;26.77;;;;;;;-4.42;100.00;97170.53;5010805;28;20025;-59
2022/01/19 00:34:22;;;;;;;35.25;25.92;;;;;;;-4.41;100.00;97166.25;5011370;28;20124;-59
2022/01/19 00:36:48;;;;;;;38.65;24.85;;;;;;;-4.39;100.00;97161.94;5011420;28;20034;-59
2022/01/19 00:39:13;;;;;;;33.08;25.13;;;;;;;-4.35;99.44;97159.31;5011340;28;20706;-59
2022/01/19 00:41:38;;;;;;;32.13;24.20;;;;;;;-4.27;99.52;97168.69;5011363;28;20409;-59
2022/01/19 00:44:04;;;;;;;36.40;24.92;;;;;;;-4.34;99.06;97170.47;5011192;28;20467;-59
2022/01/19 00:46:29;;;;;;;30.88;23.90;;;;;;;-4.40;99.49;97166.22;5011626;28;20085;-59
2022/01/19 00:48:55;;;;;;;33.38;23.90;;;;;;;-4.44;100.00;97167.13;5011095;28;20022;-59
2022/01/19 00:51:20;;;;;;;31.92;24.20;;;;;;;-4.46;100.00;97166.28;5011331;28;20025;-59
2022/01/19 00:53:45;;;;;;;30.25;23.42;;;;;;;-4.42;99.61;97159.38;5011521;28;20026;-59
2022/01/19 00:56:11;;;;;;;34.22;24.08;;;;;;;-4.45;100.00;97162.84;5011153;28;20587;-59
2022/01/19 00:58:36;;;;;;;28.40;22.58;;;;;;;-4.50;100.00;97160.31;5011101;28;20036;-59
2022/01/19 01:01:02;;;;;;;32.65;24.90;;;;;;;-4.51;99.60;97160.34;5010956;28;20079;-59
2022/01/19 01:03:27;;;;;;;37.97;27.42;;;;;;;-4.50;99.65;97141.47;5009777;28;20398;-59
2022/01/19 01:05:53;;;;;;;36.28;25.48;;;;;;;-4.53;99.95;97128.63;5010409;28;20072;-59
2022/01/19 01:08:18;;;;;;;36.70;26.27;;;;;;;-4.56;100.00;97128.66;5010645;28;20025;-59
2022/01/19 01:10:43;;;;;;;35.80;27.10;;;;;;;-4.57;100.00;97132.09;5010956;28;20022;-59
2022/01/19 01:13:22;;;;;;;32.78;26.13;;;;;;;-4.57;100.00;97137.22;5010560;28;20030;-59
2022/01/19 01:16:00;;;;;;;36.35;26.67;;;;;;;-4.59;100.00;97150.13;5007105;28;20099;-59
2022/01/19 01:18:27;;;;;;;36.53;27.23;;;;;;;-4.58;100.00;97144.09;5010971;28;20046;-59
2022/01/19 01:20:54;;;;;;;38.60;28.48;;;;;;;-4.60;100.00;97156.97;5010354;28;20026;-59
2022/01/19 01:23:23;;;;;;;33.20;25.85;;;;;;;-4.61;100.00;97157.81;5010510;28;20029;-59
2022/01/19 01:25:50;;;;;;;38.10;25.67;;;;;;;-4.65;100.00;97161.28;5010517;28;20042;-59
2022/01/19 01:28:16;;;;;;;37.53;26.08;;;;;;;-4.62;100.00;97165.56;5009284;28;20034;-59
2022/01/19 01:30:42;;;;;;;36.50;27.33;;;;;;;-4.56;100.00;97173.22;5010627;28;20030;-59
2022/01/19 01:33:07;;;;;;;36.80;27.75;;;;;;;-4.60;100.00;97164.66;5010446;28;20494;-59
2022/01/19 01:35:33;;;;;;;40.33;27.63;;;;;;;-4.61;100.00;97157.00;5010415;28;20517;-59
2022/01/19 01:37:58;;;;;;;32.55;25.20;;;;;;;-4.66;100.00;97157.03;5010304;28;20498;-60
2022/01/19 01:40:25;;;;;;;37.35;25.65;;;;;;;-4.68;100.00;97150.19;5010376;28;20062;-59
2022/01/19 01:42:55;;;;;;;36.08;25.20;;;;;;;-4.70;99.60;97152.78;5010368;28;20492;-59
2022/01/19 01:45:27;;;;;;;35.25;26.05;;;;;;;-4.71;100.00;97145.94;5010373;28;20022;-59
2022/01/19 01:48:03;;;;;;;38.85;27.77;;;;;;;-4.69;100.00;97133.91;5008694;28;20029;-59
2022/01/19 01:53:28;;;;;;;33.80;25.20;;;;;;;-4.70;100.00;97129.66;5010748;28;20036;-60
2022/01/19 01:56:00;;;;;;;35.35;26.40;;;;;;;-4.73;100.00;97124.53;5010124;28;20116;-59
2022/01/19 01:58:28;;;;;;;34.92;26.58;;;;;;;-4.78;99.68;97119.44;5009985;28;20109;-59
2022/01/19 02:00:55;;;;;;;32.42;25.13;;;;;;;-4.80;100.00;97125.44;5010099;28;20026;-59
2022/01/19 02:03:21;;;;;;;34.67;26.40;;;;;;;-4.81;100.00;97121.16;5010227;28;20033;-59
2022/01/19 02:06:38;;;;;;;34.00;25.73;;;;;;;-4.87;100.00;97118.66;5010393;28;20117;-59
2022/01/19 02:08:39;;;;;;;36.13;26.15;;;;;;;-4.91;100.00;97116.09;4999147;28;20134;-59
2022/01/19 02:21:38;;;;;;;44.90;29.17;;;;;;;-4.96;100.00;97112.72;5010134;28;20065;-59
2022/01/19 02:24:06;;;;;;;47.85;31.02;;;;;;;-4.96;100.00;97107.59;5009621;28;20036;-59
2022/01/19 02:26:51;;;;;;;54.13;32.20;;;;;;;-4.95;100.00;97108.44;5009875;28;20025;-59
2022/01/19 02:29:47;;;;;;;47.08;28.83;;;;;;;-5.00;100.00;97107.63;5007067;28;20025;-59
2022/01/19 02:40:22;;;;;;;45.08;27.90;;;;;;;-5.08;100.00;97089.69;5010827;28;20064;-59
2022/01/19 02:50:39;;;;;;;40.65;27.67;;;;;;;-5.03;100.00;97088.81;5009314;28;20036;-59
2022/01/19 02:53:05;;;;;;;40.25;25.55;;;;;;;-5.00;100.00;97092.22;5010813;28;20034;-59
2022/01/19 02:55:33;;;;;;;42.47;26.23;;;;;;;-5.03;100.00;97085.38;5010795;28;20026;-59
2022/01/19 02:57:58;;;;;;;36.20;25.85;;;;;;;-5.06;100.00;97082.81;5006450;28;20044;-59
2022/01/19 03:08:50;;;;;;;29.15;23.67;;;;;;;-5.08;100.00;97079.41;5010883;28;20064;-59
2022/01/19 03:11:20;;;;;;;35.75;22.77;;;;;;;-5.08;100.00;97090.56;5010338;28;20037;-59
2022/01/19 03:13:47;;;;;;;32.00;23.50;;;;;;;-5.08;100.00;97087.13;5010442;28;20052;-59
2022/01/19 03:16:13;;;;;;;32.08;23.45;;;;;;;-5.11;100.00;97082.84;5011020;28;20389;-60
2022/01/19 03:18:39;;;;;;;35.85;24.98;;;;;;;-5.12;100.00;97081.16;5010543;28;20458;-59
2022/01/19 03:21:06;;;;;;;30.15;23.40;;;;;;;-5.11;100.00;97089.72;5010642;28;20111;-59
2022/01/19 03:23:32;;;;;;;32.97;23.42;;;;;;;-5.14;100.00;97084.63;5010341;28;20029;-60
2022/01/19 03:25:58;;;;;;;28.25;21.90;;;;;;;-5.17;100.00;97080.34;5010535;28;20033;-59
2022/01/19 03:28:24;;;;;;;34.25;21.80;;;;;;;-5.17;100.00;97075.19;5013165;28;20038;-59
2022/01/19 03:30:50;;;;;;;30.10;22.52;;;;;;;-5.18;100.00;97073.50;5014318;28;20473;-59
2022/01/19 03:33:16;;;;;;;31.95;22.33;;;;;;;-5.21;100.00;97073.53;5013658;28;20105;-59
2022/01/19 03:35:43;;;;;;;29.90;22.17;;;;;;;-5.24;100.00;97076.13;5013811;28;20045;-59
2022/01/19 03:38:09;;;;;;;28.05;20.42;;;;;;;-5.24;100.00;97076.97;5013922;28;20075;-59
2022/01/19 03:40:36;;;;;;;27.20;21.73;;;;;;;-5.28;100.00;97075.28;5013782;28;20112;-59
2022/01/19 03:43:05;;;;;;;25.30;19.27;;;;;;;-5.21;100.00;97065.81;5013590;28;20029;-59
2022/01/19 03:45:32;;;;;;;29.80;21.08;;;;;;;-5.21;100.00;97074.38;5013836;28;20033;-59
2022/01/19 03:50:42;;;;;;;27.55;19.50;;;;;;;-5.23;100.00;97076.09;5013232;28;20178;-59
2022/01/19 03:53:07;;;;;;;23.45;19.48;;;;;;;-5.28;100.00;97077.84;5013594;28;20109;-59
2022/01/19 03:55:33;;;;;;;22.50;18.45;;;;;;;-5.36;100.00;97077.91;5013525;28;20068;-59
2022/01/19 03:57:58;;;;;;;25.00;19.85;;;;;;;-5.38;100.00;97079.63;5014017;28;20022;-59
2022/01/19 04:00:23;;;;;;;22.13;18.77;;;;;;;-5.38;100.00;97071.09;5014184;28;20091;-60
2022/01/19 04:02:49;;;;;;;24.92;18.77;;;;;;;-5.37;100.00;97063.34;5014259;28;20401;-59
2022/01/19 04:05:37;;;;;;;25.90;19.63;;;;;;;-5.37;100.00;97058.22;5014232;28;20057;-59
2022/01/19 04:08:00;;;;;;;22.42;19.65;;;;;;;-5.39;100.00;97056.56;5014168;28;20456;-59
2022/01/19 04:10:25;;;;;;;20.80;17.65;;;;;;;-5.34;100.00;97052.22;5014200;28;20042;-59
2022/01/19 04:13:07;;;;;;;25.58;17.75;;;;;;;-5.34;100.00;97049.66;5014029;28;20034;-59
2022/01/19 04:15:32;;;;;;;22.75;17.05;;;;;;;-5.37;100.00;97044.56;5014056;28;20548;-59
2022/01/19 04:17:58;;;;;;;24.17;18.20;;;;;;;-5.41;100.00;97040.31;5013585;28;20046;-59
2022/01/19 04:20:26;;;;;;;23.92;17.20;;;;;;;-5.42;100.00;97029.16;5013917;28;20030;-60
2022/01/19 04:22:51;;;;;;;22.00;16.25;;;;;;;-5.41;100.00;97036.00;5013373;28;20026;-59
2022/01/19 04:25:16;;;;;;;23.83;15.43;;;;;;;-5.44;99.90;97036.03;5013754;28;20508;-59
2022/01/19 04:27:43;;;;;;;20.83;16.45;;;;;;;-5.39;100.00;97031.72;5013715;28;20029;-59
2022/01/19 04:30:12;;;;;;;19.55;15.45;;;;;;;-5.37;100.00;97022.28;5013770;28;20030;-59
2022/01/19 04:33:23;;;;;;;19.30;15.32;;;;;;;-5.39;100.00;97030.88;5013543;28;20037;-59
2022/01/19 04:36:26;;;;;;;26.75;16.58;;;;;;;-5.38;100.00;97028.28;5010446;28;20034;-59
2022/01/19 04:44:13;;;;;;;21.25;15.88;;;;;;;-5.35;100.00;97019.72;5013146;28;20045;-59
2022/01/19 05:07:56;;;;;;;18.38;14.57;;;;;;;-5.50;100.00;97003.56;5013067;28;20083;-59
2022/01/19 05:15:52;;;;;;;16.95;13.30;;;;;;;-5.56;100.00;97007.88;5013134;28;20068;-59
2022/01/19 05:18:18;;;;;;;17.23;13.60;;;;;;;-5.58;100.00;97013.03;5012709;28;20046;-59
2022/01/19 05:20:45;;;;;;;20.08;14.30;;;;;;;-5.54;100.00;97013.84;5011942;28;20453;-59
2022/01/19 05:23:11;;;;;;;17.75;13.02;;;;;;;-5.51;99.97;97024.97;5012415;28;20037;-59
2022/01/19 05:25:36;;;;;;;17.42;13.25;;;;;;;-5.51;99.99;97014.69;5012744;28;20029;-59
2022/01/19 05:28:02;;;;;;;17.23;14.18;;;;;;;-5.56;99.74;97013.88;5012540;28;20374;-59
2022/01/19 05:30:28;;;;;;;16.90;13.70;;;;;;;-5.58;100.00;97009.59;5012528;28;20033;-59
2022/01/19 05:32:53;;;;;;;18.13;14.65;;;;;;;-5.62;100.00;97001.94;5012357;28;20049;-59
2022/01/19 05:35:19;;;;;;;17.20;13.82;;;;;;;-5.58;100.00;96997.63;5012253;28;20037;-57
2022/01/19 05:37:44;;;;;;;16.00;13.30;;;;;;;-5.55;99.90;96991.63;5012354;28;20037;-59
2022/01/19 05:40:13;;;;;;;18.05;14.15;;;;;;;-5.57;99.82;96986.50;5012403;28;20082;-56
2022/01/19 05:42:39;;;;;;;17.10;13.63;;;;;;;-5.57;100.00;96988.22;5012364;28;20080;-59
2022/01/19 05:45:05;;;;;;;18.70;14.43;;;;;;;-5.59;100.00;96985.66;5012080;28;20026;-59
2022/01/19 05:47:30;;;;;;;18.85;14.93;;;;;;;-5.60;99.99;96989.09;5012218;28;20390;-59
2022/01/19 05:49:56;;;;;;;19.75;15.68;;;;;;;-5.61;100.00;96998.50;5011526;28;20061;-59
2022/01/19 05:52:21;;;;;;;18.88;15.27;;;;;;;-5.64;99.52;96988.25;5011998;28;20497;-59
2022/01/19 05:54:47;;;;;;;20.35;15.88;;;;;;;-5.68;100.00;96991.72;5012185;28;20076;-59
2022/01/19 05:57:13;;;;;;;21.33;16.33;;;;;;;-5.68;99.65;96993.41;5012250;28;20033;-59
2022/01/19 05:59:39;;;;;;;30.50;20.85;;;;;;;-5.64;100.00;96983.13;5011862;28;20029;-59
2022/01/19 06:02:04;;;;;;;30.00;24.58;;;;;;;-5.62;100.00;96994.22;5011882;28;20030;-59
2022/01/19 06:04:29;;;;;;;35.25;25.38;;;;;;;-5.59;100.00;96995.06;5011997;28;20026;-59
2022/01/19 06:06:56;;;;;;;27.48;22.85;;;;;;;-5.59;100.00;96995.06;5011210;28;20409;-59
2022/01/19 06:09:37;;;;;;;28.38;22.00;;;;;;;-5.59;100.00;96982.25;5012084;28;20033;-59
2022/01/19 06:12:06;;;;;;;35.95;22.73;;;;;;;-5.59;100.00;96989.94;5011678;28;20049;-60
2022/01/19 06:14:34;;;;;;;28.17;23.08;;;;;;;-5.61;100.00;96992.53;5012005;28;20026;-59
2022/01/19 06:17:00;;;;;;;23.75;19.63;;;;;;;-5.64;100.00;96987.41;5011645;28;20548;-59
2022/01/19 06:19:26;;;;;;;28.20;21.88;;;;;;;-5.62;100.00;96988.28;5011793;28;20048;-59
2022/01/19 06:21:51;;;;;;;31.63;21.40;;;;;;;-5.64;100.00;96997.66;5010807;28;20474;-59
2022/01/19 06:24:17;;;;;;;32.58;20.33;;;;;;;-5.62;100.00;96999.38;5011718;28;20034;-59
2022/01/19 06:26:43;;;;;;;37.30;25.98;;;;;;;-5.59;100.00;96995.94;5010351;28;20056;-58
2022/01/19 06:29:08;;;;;;;45.70;27.85;;;;;;;-5.61;100.00;96995.94;5010240;28;20033;-58
2022/01/19 06:31:34;;;;;;;42.38;28.52;;;;;;;-5.66;100.00;96992.56;5010649;28;20061;-59
2022/01/19 06:33:59;;;;;;;39.15;25.35;;;;;;;-5.69;100.00;96990.03;5011393;28;20402;-59
2022/01/19 06:36:24;;;;;;;43.22;26.73;;;;;;;-5.74;100.00;96989.22;5011572;28;20030;-59
2022/01/19 06:38:50;;;;;;;39.80;25.25;;;;;;;-5.72;100.00;96991.75;5011579;28;20030;-59
2022/01/19 06:41:15;;;;;;;39.60;25.88;;;;;;;-5.73;100.00;96984.91;5011564;28;20033;-59
2022/01/19 06:43:41;;;;;;;40.55;26.42;;;;;;;-5.73;100.00;96982.34;5011444;28;20382;-59
2022/01/19 06:46:06;;;;;;;42.85;27.17;;;;;;;-5.70;100.00;96977.19;5010479;28;20551;-59
2022/01/19 06:48:32;;;;;;;44.15;27.15;;;;;;;-5.68;100.00;96978.88;5011287;28;20402;-59
2022/01/19 06:50:58;;;;;;;36.20;26.50;;;;;;;-5.69;100.00;96969.50;5011250;28;20101;-60
2022/01/19 06:53:23;;;;;;;44.45;28.13;;;;;;;-5.72;99.95;96972.09;5010783;28;20058;-59
2022/01/19 06:55:49;;;;;;;40.55;27.27;;;;;;;-5.74;100.00;96971.25;5010007;28;20123;-59
2022/01/19 06:58:14;;;;;;;41.25;27.77;;;;;;;-5.77;100.00;96971.25;5011226;28;20030;-59
2022/01/19 07:00:40;;;;;;;40.72;25.92;;;;;;;-5.76;100.00;96973.81;5011402;28;20030;-59
2022/01/19 07:03:06;;;;;;;37.28;25.35;;;;;;;-5.78;100.00;96978.09;4999157;28;20034;-59
2022/01/19 07:05:31;;;;;;;37.63;25.08;;;;;;;-5.77;100.00;96976.38;4995579;28;20544;-59
2022/01/19 07:07:57;;;;;;;42.08;29.95;;;;;;;-5.75;100.00;96975.50;5005324;28;20386;-59
2022/01/19 07:10:24;;;;;;;38.53;28.30;;;;;;;-5.74;100.00;96984.06;5014972;28;20065;-59
2022/01/19 07:12:50;;;;;;;43.55;27.90;;;;;;;-5.76;99.71;96984.06;5013746;28;20041;-58
2022/01/19 07:15:16;;;;;;;36.42;26.98;;;;;;;-5.75;99.74;96990.03;5014534;28;20038;-57
2022/01/19 07:17:42;;;;;;;33.40;25.67;;;;;;;-5.76;99.87;96984.06;5014771;28;20050;-59
2022/01/19 07:20:08;;;;;;;39.63;28.05;;;;;;;-5.77;99.96;96982.38;5014960;28;20032;-59
2022/01/19 07:22:34;;;;;;;34.08;25.13;;;;;;;-5.78;100.00;96990.06;5014816;28;20054;-59
2022/01/19 07:24:59;;;;;;;37.22;27.08;;;;;;;-5.79;100.00;96980.66;5014906;28;20057;-60
2022/01/19 07:27:25;;;;;;;36.80;27.10;;;;;;;-5.79;100.00;96989.22;5013913;28;20623;-59
2022/01/19 07:29:51;;;;;;;38.85;28.75;;;;;;;-5.79;100.00;96990.94;5013717;28;20034;-61
2022/01/19 07:32:16;;;;;;;38.20;28.50;;;;;;;-5.79;100.00;96986.66;5012588;28;20028;-60
2022/01/19 07:34:42;;;;;;;36.55;27.20;;;;;;;-5.77;100.00;96982.38;5012763;28;20549;-61
2022/01/19 07:37:07;;;;;;;39.05;27.63;;;;;;;-5.78;100.00;96980.66;5011745;28;20494;-61
2022/01/19 07:39:33;;;;;;;39.97;27.10;;;;;;;-5.78;100.00;96985.81;5012090;28;20026;-60
2022/01/19 07:41:59;;;;;;;33.70;26.20;;;;;;;-5.77;100.00;96982.38;5012662;28;20068;-61
2022/01/19 07:44:24;;;;;;;40.10;26.27;;;;;;;-5.72;100.00;96989.19;5010916;28;20038;-60
2022/01/19 07:46:51;;;;;;;33.45;24.90;;;;;;;-5.70;100.00;96988.31;5011905;28;20026;-59
2022/01/19 07:49:17;;;;;;;35.47;25.85;;;;;;;-5.66;100.00;96984.00;5011996;28;20099;-58
2022/01/19 07:51:42;;;;;;;39.63;28.38;;;;;;;-5.65;100.00;96991.69;5012729;28;20026;-60
2022/01/19 07:54:08;;;;;;;37.75;28.17;;;;;;;-5.62;100.00;96990.84;5012764;28;20374;-60
2022/01/19 07:56:34;;;;;;;37.47;26.77;;;;;;;-5.61;100.00;96989.97;5013016;28;20117;-59
2022/01/19 07:58:59;;;;;;;40.58;25.45;;;;;;;-5.61;100.00;96985.66;5013242;28;20036;-61
2022/01/19 08:01:27;;;;;;;32.22;23.13;;;;;;;-5.58;100.00;96981.38;5012078;28;20034;-61
2022/01/19 08:03:53;;;;;;;36.17;25.73;;;;;;;-5.57;100.00;96983.94;5012039;28;20026;-60
2022/01/19 08:06:18;;;;;;;35.30;25.65;;;;;;;-5.53;100.00;96989.88;5013913;28;20026;-54
2022/01/19 08:08:43;;;;;;;31.75;24.13;;;;;;;-5.53;100.00;96977.06;5013278;28;20034;-55
2022/01/19 08:11:09;;;;;;;31.90;23.35;;;;;;;-5.51;100.00;96973.63;5012229;28;20535;-55
2022/01/19 08:13:34;;;;;;;34.65;26.13;;;;;;;-5.46;100.00;96989.00;5011920;28;20040;-56
2022/01/19 08:15:59;;;;;;;35.80;25.65;;;;;;;-5.44;100.00;96981.25;5012415;28;20486;-56
2022/01/19 08:18:25;;;;;;;35.83;25.52;;;;;;;-5.41;100.00;96979.53;5013319;28;20516;-56
2022/01/19 08:20:50;;;;;;;36.80;23.08;;;;;;;-5.42;100.00;96979.53;5012353;28;20390;-55
2022/01/19 08:23:16;;;;;;;31.10;24.33;;;;;;;-5.43;100.00;96986.41;5013033;28;20028;-55
2022/01/19 08:25:41;;;;;;;31.17;25.45;;;;;;;-5.38;100.00;96981.25;5012702;28;20122;-55
2022/01/19 08:28:06;;;;;;;34.17;25.40;;;;;;;-5.36;100.00;96988.03;5011932;28;20030;-58
2022/01/19 08:30:33;;;;;;;34.70;27.58;;;;;;;-5.29;100.00;96990.59;5012378;28;20106;-58
2022/01/19 08:32:59;;;;;;;33.75;27.00;;;;;;;-5.25;100.00;96992.25;5011720;28;20096;-56
2022/01/19 08:35:24;;;;;;;29.80;22.48;;;;;;;-5.29;100.00;96999.13;5011821;28;20026;-57
2022/01/19 08:37:50;;;;;;;40.03;24.50;;;;;;;-5.32;100.00;96997.41;5011975;28;20010;-55
2022/01/19 08:40:15;;;;;;;31.17;24.95;;;;;;;-5.33;100.00;97005.16;5010885;28;20057;-55
2022/01/19 08:42:41;;;;;;;74.60;49.15;;;;;;;-5.30;100.00;97007.69;5012070;28;20113;-55
2022/01/19 08:45:08;;;;;;;69.30;45.70;;;;;;;-5.22;100.00;97011.03;5012025;28;20010;-56
2022/01/19 08:47:38;;;;;;;94.88;61.50;;;;;;;-5.17;100.00;97008.44;5011935;28;20018;-57
2022/01/19 08:50:09;;;;;;;86.65;59.03;;;;;;;-5.13;100.00;97012.66;5012165;28;20452;-59
2022/01/19 08:52:35;;;;;;;87.03;54.63;;;;;;;-5.12;100.00;97004.09;5012308;28;20429;-56
2022/01/19 08:55:00;;;;;;;73.80;49.88;;;;;;;-5.07;100.00;96999.78;5012252;28;20025;-53
2022/01/19 08:57:26;;;;;;;75.85;49.22;;;;;;;-5.04;100.00;97007.47;5012575;28;20113;-59
2022/01/19 08:59:52;;;;;;;60.10;44.45;;;;;;;-5.02;100.00;97007.44;5012389;28;20517;-57
2022/01/19 09:02:17;;;;;;;77.28;47.70;;;;;;;-4.96;100.00;97012.53;5012095;28;20051;-57
2022/01/19 09:04:43;;;;;;;64.55;42.67;;;;;;;-4.90;100.00;97014.19;5011948;28;20048;-56
2022/01/19 09:07:08;;;;;;;69.25;43.05;;;;;;;-4.85;100.00;97016.72;5012460;28;20033;-58
2022/01/19 09:09:34;;;;;;;57.70;42.22;;;;;;;-4.81;100.00;97018.38;5011827;28;20033;-57
2022/01/19 09:11:59;;;;;;;65.43;44.17;;;;;;;-4.78;100.00;97016.63;5011104;28;20115;-57
2022/01/19 09:14:25;;;;;;;62.35;43.78;;;;;;;-4.73;100.00;97020.88;5011664;28;20132;-56
2022/01/19 09:16:50;;;;;;;47.50;35.47;;;;;;;-4.54;100.00;97012.09;5011089;28;20512;-54
2022/01/19 09:19:17;;;;;;;51.92;37.70;;;;;;;-4.51;100.00;97014.63;5010927;28;20049;-58
2022/01/19 09:21:43;;;;;;;52.53;39.17;;;;;;;-4.51;100.00;97018.94;4997288;28;20026;-56
2022/01/19 09:24:11;;;;;;;51.20;39.20;;;;;;;-4.51;100.00;97019.78;4992168;28;20555;-55
2022/01/19 09:26:37;;;;;;;50.75;38.50;;;;;;;-4.28;100.00;97022.97;4991559;28;20022;-52
2022/01/19 09:29:04;;;;;;;82.85;60.67;;;;;;;-3.60;100.00;97024.63;4992056;28;20036;-56
2022/01/19 09:31:29;;;;;;;104.65;70.32;;;;;;;-2.91;100.00;97030.41;4992273;28;20803;-58
2022/01/19 09:34:06;;;;;;;86.95;62.60;;;;;;;-2.39;100.00;97032.09;5007890;28;20065;-57
2022/01/19 09:36:34;;;;;;;84.80;63.00;;;;;;;-1.91;97.18;97031.09;5011963;28;20472;-57
2022/01/19 09:39:00;;;;;;;96.18;68.93;;;;;;;-1.45;97.27;97031.84;5011851;28;20041;-58
2022/01/19 09:41:26;;;;;;;77.47;57.25;;;;;;;-0.91;95.41;97029.69;5011506;28;20025;-56
2022/01/19 09:43:52;;;;;;;58.90;46.70;;;;;;;-0.56;92.87;97027.09;5011657;28;20383;-56
2022/01/19 09:46:18;;;;;;;37.15;27.88;;;;;;;-0.18;91.79;97028.66;5010950;28;20029;-56
2022/01/19 09:48:43;;;;;;;29.88;23.83;;;;;;;0.20;89.11;97022.41;5011621;28;20044;-56
2022/01/19 09:51:09;;;;;;;40.00;32.97;;;;;;;0.48;87.49;97032.78;5011521;28;20061;-57
2022/01/19 09:53:34;;;;;;;19.80;17.52;;;;;;;0.69;86.63;97026.13;5007046;28;20060;-58
2022/01/19 09:56:02;;;;;;;28.40;19.98;;;;;;;0.86;86.15;97019.53;5010578;28;20033;-58
2022/01/19 09:58:27;;;;;;;20.15;16.05;;;;;;;1.07;85.95;97023.19;5008929;28;20034;-59
2022/01/19 10:00:52;;;;;;;24.30;19.52;;;;;;;1.27;85.48;97016.47;5010210;28;20022;-59
2022/01/19 10:03:19;;;;;;;14.80;12.15;;;;;;;1.38;82.76;97014.34;5008004;28;20113;-59
2022/01/19 10:06:10;;;;;;;18.17;15.65;;;;;;;1.39;83.55;97005.66;5006658;28;20603;-59
2022/01/19 10:08:55;;;;;;;14.15;12.00;;;;;;;1.52;84.04;97005.25;5008001;28;20025;-59
2022/01/19 10:17:06;;;;;;;30.67;19.75;;;;;;;2.24;84.97;96990.53;5006929;28;20049;-59
2022/01/19 10:19:48;;;;;;;28.88;19.17;;;;;;;2.48;82.26;96991.31;5009549;28;20033;-59
2022/01/19 10:22:22;;;;;;;21.05;15.65;;;;;;;2.64;80.84;96990.72;4992359;28;20026;-59
2022/01/19 10:24:50;;;;;;;16.40;13.23;;;;;;;2.53;79.40;96991.16;5011031;28;20036;-59
2022/01/19 10:27:38;;;;;;;18.80;14.38;;;;;;;2.60;83.33;96979.59;5007423;28;20022;-59
2022/01/19 10:30:03;;;;;;;19.92;13.70;;;;;;;2.65;81.90;96982.03;5009176;28;20030;-59
2022/01/19 10:32:42;;;;;;;11.18;10.05;;;;;;;2.90;75.49;96971.47;5010079;28;20596;-59
2022/01/19 10:35:19;;;;;;;13.32;11.43;;;;;;;2.79;73.38;96974.50;5009920;28;20072;-60
2022/01/19 10:37:47;;;;;;;15.82;13.25;;;;;;;3.04;73.59;96973.50;5009700;28;20109;-61
2022/01/19 10:40:18;;;;;;;16.23;13.40;;;;;;;3.29;73.48;96962.06;5007372;28;20029;-60
2022/01/19 10:42:44;;;;;;;15.60;12.40;;;;;;;3.37;70.83;96967.78;5009114;28;20117;-61
2022/01/19 10:45:11;;;;;;;11.25;10.15;;;;;;;3.42;72.42;96952.78;5004438;28;20069;-61
2022/01/19 10:47:40;;;;;;;14.70;10.65;;;;;;;3.43;71.19;96946.69;5008225;28;20032;-61
2022/01/19 10:50:09;;;;;;;16.88;12.32;;;;;;;3.57;68.17;96950.44;5010409;28;20061;-61
2022/01/19 10:52:37;;;;;;;17.65;13.20;;;;;;;3.46;67.34;96935.28;5009373;28;20117;-60
2022/01/19 10:55:31;;;;;;;17.02;13.43;;;;;;;3.80;68.85;96935.53;5008308;28;20068;-61
2022/01/19 10:57:59;;;;;;;16.30;12.50;;;;;;;4.08;69.62;96934.25;5007289;28;20100;-60
2022/01/19 11:00:31;;;;;;;14.32;12.82;;;;;;;4.22;65.02;96931.88;5009888;28;20076;-60
2022/01/19 11:03:14;;;;;;;12.15;10.25;;;;;;;4.35;66.40;96921.72;5009380;28;20042;-60
2022/01/19 11:05:51;;;;;;;14.55;10.07;;;;;;;4.70;64.37;96926.13;5010185;28;20080;-60
2022/01/19 11:08:19;;;;;;;13.07;11.68;;;;;;;4.77;65.39;96919.72;5009518;28;20029;-60
2022/01/19 11:10:49;;;;;;;14.98;11.75;;;;;;;4.99;62.28;96913.44;5009620;28;20098;-60
2022/01/19 11:15:52;;;;;;;15.63;12.68;;;;;;;4.66;62.96;96903.72;5010798;28;20092;-59
2022/01/19 11:18:19;;;;;;;13.35;11.80;;;;;;;4.73;63.56;96898.13;5008709;28;20045;-60
2022/01/19 11:20:47;;;;;;;14.10;11.10;;;;;;;5.08;64.00;96896.44;5009021;28;20037;-60
2022/01/19 11:23:46;;;;;;;12.05;10.63;;;;;;;5.14;60.89;96894.34;5009356;28;20389;-60
2022/01/19 11:26:16;;;;;;;14.35;12.90;;;;;;;5.10;61.36;96886.78;5003059;28;20062;-60
2022/01/19 11:28:47;;;;;;;17.60;14.90;;;;;;;4.86;64.68;96885.31;5010702;28;20026;-60
2022/01/19 11:31:32;;;;;;;14.18;12.48;;;;;;;4.88;63.74;96875.66;5009957;28;20026;-60
2022/01/19 11:33:58;;;;;;;14.95;13.32;;;;;;;5.24;62.88;96876.44;4996249;28;20109;-60
2022/01/19 11:36:34;;;;;;;16.58;14.02;;;;;;;5.37;62.59;96867.97;5010296;28;20512;-60
2022/01/19 11:39:08;;;;;;;17.58;14.88;;;;;;;5.22;62.75;96861.81;5006648;28;20490;-61
2022/01/19 11:41:56;;;;;;;17.45;15.02;;;;;;;5.68;63.32;96850.66;5009372;28;20394;-61
2022/01/19 11:44:33;;;;;;;17.85;15.65;;;;;;;5.87;61.69;96843.50;5007838;28;20045;-61
2022/01/19 11:47:13;;;;;;;19.40;17.15;;;;;;;5.96;62.10;96834.31;5006617;28;20033;-61
2022/01/19 11:49:58;;;;;;;20.25;17.13;;;;;;;6.18;60.98;96838.38;5012943;28;20108;-61
2022/01/19 11:52:34;;;;;;;17.50;15.63;;;;;;;6.74;60.22;96828.19;5012032;28;20029;-61
2022/01/19 11:55:21;;;;;;;20.08;17.92;;;;;;;7.06;57.50;96823.75;5008631;28;20037;-60
2022/01/19 11:57:49;;;;;;;18.88;16.95;;;;;;;7.21;57.56;96819.38;5012150;28;20041;-60
2022/01/19 12:00:22;;;;;;;19.33;15.93;;;;;;;7.27;58.25;96822.44;5013244;28;20033;-59
2022/01/19 12:02:53;;;;;;;16.10;14.40;;;;;;;7.19;55.19;96819.47;5014153;28;20036;-60
2022/01/19 12:05:25;;;;;;;16.90;15.15;;;;;;;6.68;56.98;96819.84;5012505;28;20456;-60
2022/01/19 12:08:17;;;;;;;17.92;14.85;;;;;;;6.65;57.78;96812.19;5005689;28;20050;-61
2022/01/19 12:10:47;;;;;;;18.58;16.67;;;;;;;6.21;59.82;96806.81;5011871;28;20022;-61
2022/01/19 12:13:43;;;;;;;18.73;16.65;;;;;;;6.47;58.43;96799.25;5011129;28;20034;-60
2022/01/19 12:16:14;;;;;;;19.15;17.10;;;;;;;6.23;59.53;96799.72;5012362;28;20022;-60
2022/01/19 12:18:39;;;;;;;17.35;15.50;;;;;;;6.45;58.50;96790.63;5012180;28;20425;-60
2022/01/19 12:21:06;;;;;;;18.73;15.40;;;;;;;6.37;58.35;96788.47;5012626;28;20041;-61
2022/01/19 12:23:34;;;;;;;16.70;15.13;;;;;;;6.48;58.16;96782.59;5009464;28;20033;-61
2022/01/19 12:26:02;;;;;;;19.27;17.38;;;;;;;6.33;58.03;96783.53;5012300;28;20033;-61
2022/01/19 12:28:57;;;;;;;20.25;17.90;;;;;;;6.09;59.34;96776.16;5011906;28;20054;-61
2022/01/19 12:31:26;;;;;;;20.40;16.80;;;;;;;6.30;58.83;96767.06;4995233;28;20084;-61
2022/01/19 12:34:03;;;;;;;18.02;15.70;;;;;;;6.25;58.94;96763.88;5012931;28;20517;-60
2022/01/19 12:36:47;;;;;;;17.40;15.50;;;;;;;6.31;59.38;96752.22;5012738;28;20030;-61
2022/01/19 12:39:24;;;;;;;16.45;13.60;;;;;;;6.19;59.42;96740.69;5012632;28;20029;-60
2022/01/19 12:42:13;;;;;;;15.63;14.00;;;;;;;6.12;60.05;96737.59;5010831;28;20025;-60